Terminal Aerodrome Forecast
Issued by NWS Missoula, MT

Home | Current Version | Previous Version | Text Only | Print | Product List | Glossary On
Versions: 1 2 3 4 5 6 7 8 9 10 11 12 13 14 15 16
044
FTUS45 KMSO 040520
TAFBTM
TAF
KBTM 040520Z 0406/0506 25010G18KT P6SM BKN080
     FM041600 23010KT P6SM VCSH SCT035 OVC050
     FM042200 28015G25KT 4SM -SN SCT020 OVC030=

USA.gov is the U.S. government's official web portal to all federal, state and local government web resources and services.